createdAt,value
2019-05-02T00:02:16.021Z,17.40
2019-05-02T00:05:05.568Z,15.33
2019-05-02T00:07:53.823Z,17.60
2019-05-02T00:10:42.819Z,17.10
2019-05-02T00:13:31.044Z,15.13
2019-05-02T00:16:19.377Z,15.83
2019-05-02T00:19:09.136Z,15.70
2019-05-02T00:21:58.285Z,15.67
2019-05-02T00:24:47.251Z,16.23
2019-05-02T00:27:37.695Z,14.57
2019-05-02T00:30:24.849Z,17.53
2019-05-02T00:33:12.691Z,14.53
2019-05-02T00:36:00.527Z,15.53
2019-05-02T00:38:50.668Z,15.50
2019-05-02T00:41:40.359Z,14.33
2019-05-02T00:44:28.491Z,14.03
2019-05-02T00:47:20.907Z,14.20
2019-05-02T00:50:11.411Z,16.73
2019-05-02T00:52:58.371Z,12.83
2019-05-02T00:55:46.263Z,15.63
2019-05-02T00:58:34.270Z,16.63
2019-05-02T01:01:31.134Z,15.33
2019-05-02T01:04:23.294Z,17.03
2019-05-02T01:07:12.500Z,17.97
2019-05-02T01:10:00.839Z,16.97
2019-05-02T01:12:48.850Z,17.13
2019-05-02T01:15:39.046Z,14.70
2019-05-02T01:18:26.320Z,15.87
2019-05-02T01:21:14.377Z,18.23
2019-05-02T01:24:02.925Z,16.77
2019-05-02T01:26:52.962Z,16.63
2019-05-02T01:30:01.425Z,15.77
2019-05-02T01:32:55.021Z,16.00
2019-05-02T01:35:44.707Z,14.83
2019-05-02T01:38:49.365Z,14.67
2019-05-02T01:41:37.474Z,16.40
2019-05-02T01:44:25.588Z,18.87
2019-05-02T01:47:13.794Z,20.47
2019-05-02T01:50:13.596Z,19.20
2019-05-02T01:53:01.320Z,17.23
2019-05-02T01:55:51.961Z,17.37
2019-05-02T01:58:38.830Z,19.77
2019-05-02T02:01:27.006Z,17.37
2019-05-02T02:04:16.148Z,16.57
2019-05-02T02:07:05.581Z,17.63
2019-05-02T02:09:53.550Z,22.20
2019-05-02T02:13:02.212Z,19.53
2019-05-02T02:15:43.419Z,17.77
2019-05-02T02:18:32.974Z,18.67
2019-05-02T02:21:28.481Z,19.37
2019-05-02T02:24:24.768Z,17.33
2019-05-02T02:27:10.483Z,20.03
2019-05-02T02:29:58.545Z,19.00
2019-05-02T02:32:46.341Z,16.90
2019-05-02T02:35:34.257Z,18.30
2019-05-02T02:38:26.812Z,20.13
2019-05-02T02:41:15.048Z,19.33
2019-05-02T02:44:06.200Z,23.03
2019-05-02T02:46:54.992Z,20.23
2019-05-02T02:49:43.215Z,15.73
2019-05-02T02:52:30.931Z,20.13
2019-05-02T02:55:21.954Z,19.57
2019-05-02T02:58:08.740Z,19.43
2019-05-02T03:00:56.935Z,18.00
2019-05-02T03:03:45.022Z,16.87
2019-05-02T03:06:38.345Z,19.77
2019-05-02T03:09:26.886Z,19.13
2019-05-02T03:12:23.143Z,21.67
2019-05-02T03:15:12.528Z,24.03
2019-05-02T03:18:02.181Z,17.57
2019-05-02T03:20:50.515Z,20.03
2019-05-02T03:23:38.359Z,34.07
2019-05-02T03:26:26.797Z,22.00
2019-05-02T03:29:14.900Z,17.70
2019-05-02T03:32:14.285Z,20.43
2019-05-02T03:34:54.098Z,20.57
2019-05-02T03:37:44.981Z,20.63
2019-05-02T03:40:32.247Z,19.60
2019-05-02T03:43:25.917Z,21.67
2019-05-02T03:46:13.431Z,21.87
2019-05-02T03:49:07.754Z,19.30
2019-05-02T03:51:55.842Z,21.90
2019-05-02T03:54:48.393Z,22.57
2019-05-02T03:57:33.601Z,18.90
2019-05-02T04:00:24.064Z,20.13
2019-05-02T04:03:11.617Z,19.33
2019-05-02T04:05:59.852Z,21.43
2019-05-02T04:08:59.234Z,23.70
2019-05-02T04:11:40.764Z,21.53
2019-05-02T04:14:37.479Z,19.53
2019-05-02T04:17:17.487Z,21.57
2019-05-02T04:20:09.607Z,21.73
2019-05-02T04:22:57.730Z,24.37
2019-05-02T04:25:45.814Z,22.57
2019-05-02T04:28:34.535Z,22.67
2019-05-02T04:31:25.048Z,24.03
2019-05-02T04:34:15.364Z,20.47
2019-05-02T04:37:04.078Z,22.70
2019-05-02T04:39:53.667Z,23.00
2019-05-02T04:42:40.850Z,18.93
2019-05-02T04:45:44.477Z,19.57
2019-05-02T04:48:18.535Z,20.07
2019-05-02T04:51:16.123Z,17.23
2019-05-02T04:53:58.847Z,17.90
2019-05-02T04:56:49.636Z,18.20
2019-05-02T04:59:39.250Z,16.77
2019-05-02T05:02:31.079Z,18.17
2019-05-02T05:05:17.222Z,18.97
2019-05-02T05:08:07.701Z,18.67
2019-05-02T05:10:57.278Z,18.90
2019-05-02T05:13:45.067Z,18.53
2019-05-02T05:16:32.814Z,15.33
2019-05-02T05:19:23.126Z,13.13
2019-05-02T05:22:12.027Z,13.83
2019-05-02T05:25:07.605Z,16.33
2019-05-02T05:27:58.758Z,16.87
2019-05-02T05:30:49.174Z,13.07
2019-05-02T05:33:37.707Z,14.97
2019-05-02T05:36:32.630Z,12.80
2019-05-02T05:39:17.595Z,13.63
2019-05-02T05:42:10.376Z,14.60
2019-05-02T05:44:55.385Z,15.07
2019-05-02T05:47:43.387Z,13.77
2019-05-02T05:50:32.322Z,11.50
2019-05-02T05:53:24.339Z,15.10
2019-05-02T05:56:10.585Z,17.57
2019-05-02T05:58:59.210Z,13.37
2019-05-02T06:01:48.333Z,17.73
2019-05-02T06:04:38.756Z,16.07
2019-05-02T06:07:27.783Z,16.20
2019-05-02T06:10:15.947Z,15.13
2019-05-02T06:13:05.345Z,16.27
2019-05-02T06:16:01.984Z,16.17
2019-05-02T06:18:43.685Z,14.70
2019-05-02T06:21:31.428Z,14.37
2019-05-02T06:24:19.309Z,16.27
2019-05-02T06:27:07.211Z,15.47
2019-05-02T06:29:57.306Z,16.80
2019-05-02T06:32:45.252Z,16.87
2019-05-02T06:35:33.208Z,12.60
2019-05-02T06:38:21.845Z,15.90
2019-05-02T06:41:10.896Z,16.73
2019-05-02T06:43:58.820Z,12.10
2019-05-02T06:46:46.810Z,14.37
2019-05-02T06:49:34.551Z,14.33
2019-05-02T06:52:26.989Z,15.60
2019-05-02T06:55:12.512Z,16.33
2019-05-02T06:58:02.904Z,18.67
2019-05-02T07:00:58.382Z,15.73
2019-05-02T07:03:41.333Z,14.03
2019-05-02T07:06:30.097Z,17.73
2019-05-02T07:09:18.247Z,15.77
2019-05-02T07:12:09.897Z,14.93
2019-05-02T07:15:01.407Z,13.57
2019-05-02T07:17:47.431Z,15.93
2019-05-02T07:20:40.503Z,16.50
2019-05-02T07:23:24.972Z,18.57
2019-05-02T07:26:15.534Z,16.83
2019-05-02T07:29:02.536Z,16.73
2019-05-02T07:31:53.339Z,14.57
2019-05-02T07:34:44.138Z,14.70
2019-05-02T07:37:30.080Z,17.92
2019-05-02T07:40:18.896Z,15.60
2019-05-02T07:43:06.912Z,18.37
2019-05-02T07:45:54.681Z,18.17
2019-05-02T07:48:43.743Z,15.20
2019-05-02T07:51:32.117Z,17.73
2019-05-02T07:54:24.803Z,11.13
2019-05-02T07:57:09.471Z,14.20
2019-05-02T08:00:00.506Z,12.23
2019-05-02T08:02:47.198Z,14.57
2019-05-02T08:05:35.068Z,14.53
2019-05-02T08:08:25.072Z,13.17
2019-05-02T08:11:12.441Z,15.63
2019-05-02T08:14:00.617Z,14.50
2019-05-02T08:16:48.795Z,12.47
2019-05-02T08:19:37.489Z,12.87
2019-05-02T08:22:26.265Z,14.03
2019-05-02T08:25:14.075Z,13.10
2019-05-02T08:28:10.109Z,11.60
2019-05-02T08:30:58.574Z,12.23
2019-05-02T08:33:46.452Z,14.60
2019-05-02T08:36:34.252Z,13.23
2019-05-02T08:39:25.936Z,12.40
2019-05-02T08:42:12.122Z,13.17
2019-05-02T08:45:01.004Z,13.90
2019-05-02T08:47:49.588Z,17.63
2019-05-02T08:50:37.685Z,15.63
2019-05-02T08:53:25.367Z,14.13
2019-05-02T08:56:16.003Z,12.30
2019-05-02T08:59:02.790Z,13.63
2019-05-02T09:01:51.405Z,12.87
2019-05-02T09:04:39.271Z,12.80
2019-05-02T09:07:31.477Z,13.67
2019-05-02T09:10:37.031Z,13.73
2019-05-02T09:13:29.303Z,11.47
2019-05-02T09:16:16.560Z,11.37
2019-05-02T09:19:04.264Z,13.50
2019-05-02T09:21:52.542Z,13.13
2019-05-02T09:24:42.978Z,12.77
2019-05-02T09:27:31.807Z,16.93
2019-05-02T09:30:22.861Z,13.97
2019-05-02T09:33:11.658Z,14.57
2019-05-02T09:35:58.950Z,17.07
2019-05-02T09:38:48.736Z,16.07
2019-05-02T09:41:37.009Z,18.87
2019-05-02T09:44:24.921Z,17.93
2019-05-02T09:47:14.238Z,20.07
2019-05-02T09:50:07.044Z,21.43
2019-05-02T09:52:55.149Z,21.37
2019-05-02T09:55:50.371Z,21.37
2019-05-02T09:58:32.696Z,23.87
2019-05-02T10:01:24.916Z,25.20
2019-05-02T10:04:12.641Z,26.47
2019-05-02T10:07:02.427Z,25.73
2019-05-02T10:09:51.789Z,24.03
2019-05-02T10:12:39.887Z,23.03
2019-05-02T10:15:27.673Z,24.10
2019-05-02T10:18:19.562Z,24.10
2019-05-02T10:21:07.709Z,23.00
2019-05-02T10:23:59.305Z,25.13
2019-05-02T10:26:45.392Z,24.23
2019-05-02T10:29:33.352Z,25.67
2019-05-02T10:32:22.643Z,25.43
2019-05-02T10:35:12.931Z,24.53
2019-05-02T10:38:02.329Z,24.40
2019-05-02T10:40:56.520Z,22.87
2019-05-02T10:43:41.780Z,23.77
2019-05-02T10:46:33.454Z,23.80
2019-05-02T10:49:22.716Z,23.57
2019-05-02T10:52:12.222Z,21.20
2019-05-02T10:55:02.508Z,24.67
2019-05-02T10:57:52.685Z,21.80
2019-05-02T11:00:44.897Z,23.33
2019-05-02T11:03:32.060Z,19.83
2019-05-02T11:06:22.087Z,25.73
2019-05-02T11:09:12.070Z,22.23
2019-05-02T11:12:02.555Z,26.47
2019-05-02T11:14:57.953Z,24.07
2019-05-02T11:17:47.138Z,22.20
2019-05-02T11:20:34.713Z,17.70
2019-05-02T11:23:22.516Z,21.73
2019-05-02T11:26:14.519Z,18.23
2019-05-02T11:29:00.294Z,17.77
2019-05-02T11:31:48.088Z,19.10
2019-05-02T11:34:35.825Z,17.20
2019-05-02T11:37:23.755Z,17.37
2019-05-02T11:40:12.848Z,18.83
2019-05-02T11:43:02.855Z,15.43
2019-05-02T11:45:55.896Z,16.47
2019-05-02T11:48:53.258Z,14.23
2019-05-02T11:51:29.408Z,18.10
2019-05-02T11:54:17.453Z,14.97
2019-05-02T11:57:05.424Z,17.07
2019-05-02T11:59:53.169Z,15.27
2019-05-02T12:02:42.863Z,17.50
2019-05-02T12:05:35.713Z,17.77
2019-05-02T12:08:22.623Z,17.83
2019-05-02T12:11:15.964Z,16.33
2019-05-02T12:14:12.527Z,13.67
2019-05-02T12:17:02.489Z,15.07
2019-05-02T12:19:49.755Z,16.73
2019-05-02T12:22:37.685Z,15.53
2019-05-02T12:25:25.660Z,20.60
2019-05-02T12:28:13.112Z,11.50
2019-05-02T12:31:02.765Z,10.87
2019-05-02T12:33:51.647Z,11.57
2019-05-02T12:36:39.616Z,13.70
2019-05-02T12:39:27.277Z,15.47
2019-05-02T12:42:15.223Z,12.90
2019-05-02T12:45:04.300Z,14.37
2019-05-02T12:47:52.589Z,14.73
2019-05-02T12:50:41.813Z,17.10
2019-05-02T12:53:30.021Z,17.90
2019-05-02T12:56:17.712Z,17.63
2019-05-02T12:59:05.680Z,10.27
2019-05-02T13:01:53.784Z,12.67
2019-05-02T13:04:41.927Z,12.83
2019-05-02T13:07:31.637Z,10.80
2019-05-02T13:10:21.982Z,12.17
2019-05-02T13:13:12.296Z,12.07
2019-05-02T13:16:01.680Z,13.33
2019-05-02T13:18:51.933Z,11.63
2019-05-02T13:21:45.441Z,14.37
2019-05-02T13:24:47.012Z,12.97
2019-05-02T13:27:43.279Z,10.70
2019-05-02T13:30:24.844Z,11.43
2019-05-02T13:33:14.666Z,13.97
2019-05-02T13:36:02.635Z,13.10
2019-05-02T13:38:51.918Z,13.90
2019-05-02T13:41:39.779Z,14.40
2019-05-02T13:44:32.700Z,13.93
2019-05-02T13:47:22.782Z,18.17
2019-05-02T13:50:12.863Z,17.70
2019-05-02T13:52:59.997Z,14.33
2019-05-02T13:55:49.700Z,16.73
2019-05-02T13:58:37.872Z,16.17
2019-05-02T14:01:25.768Z,15.37
2019-05-02T14:04:15.019Z,17.43
2019-05-02T14:07:03.227Z,15.63
2019-05-02T14:09:58.266Z,16.23
2019-05-02T14:12:52.835Z,16.77
2019-05-02T14:15:42.084Z,21.00
2019-05-02T14:18:31.597Z,16.00
2019-05-02T14:21:22.304Z,17.17
2019-05-02T14:24:11.735Z,16.37
2019-05-02T14:26:59.915Z,18.20
2019-05-02T14:29:47.642Z,16.97
2019-05-02T14:32:35.416Z,16.50
2019-05-02T14:35:32.650Z,16.90
2019-05-02T14:38:22.066Z,16.40
2019-05-02T14:41:12.425Z,19.30
2019-05-02T14:44:00.417Z,16.53
2019-05-02T14:46:48.100Z,17.00
2019-05-02T14:49:35.705Z,15.30
2019-05-02T14:52:23.372Z,16.53
2019-05-02T14:55:16.907Z,16.40
2019-05-02T14:58:05.811Z,15.47
2019-05-02T15:00:53.990Z,14.90
2019-05-02T15:03:42.392Z,13.37
2019-05-02T15:06:33.334Z,16.57
2019-05-02T15:09:22.644Z,19.53
2019-05-02T15:12:15.865Z,16.93
2019-05-02T15:15:02.608Z,16.70
2019-05-02T15:17:52.851Z,17.20
2019-05-02T15:20:42.322Z,16.63
2019-05-02T15:23:32.470Z,16.93
2019-05-02T15:26:20.641Z,17.93
2019-05-02T15:29:12.061Z,14.90
2019-05-02T15:32:03.305Z,11.33
2019-05-02T15:34:54.102Z,7.33
2019-05-02T15:37:42.083Z,6.87
2019-05-02T15:43:18.719Z,5.33
2019-05-02T15:46:06.336Z,9.50
2019-05-02T15:48:57.248Z,7.27
2019-05-02T15:51:49.724Z,8.10
2019-05-02T15:54:34.684Z,7.43
2019-05-02T15:57:24.800Z,6.83
2019-05-02T16:00:22.053Z,8.20
2019-05-02T16:03:04.653Z,6.87
2019-05-02T16:05:52.692Z,7.33
2019-05-02T16:08:46.790Z,6.43
2019-05-02T16:11:34.630Z,8.63
2019-05-02T16:14:26.955Z,9.97
2019-05-02T16:17:12.758Z,6.80
2019-05-02T16:20:07.644Z,7.63
2019-05-02T16:22:53.456Z,7.30
2019-05-02T16:25:42.899Z,7.27
2019-05-02T16:28:32.435Z,6.97
2019-05-02T16:31:22.086Z,7.80
2019-05-02T16:34:12.575Z,7.73
2019-05-02T16:37:07.119Z,9.53
2019-05-02T16:39:53.995Z,9.63
2019-05-02T16:42:42.023Z,15.03
2019-05-02T16:45:30.097Z,13.73
2019-05-02T16:52:56.139Z,7.73
2019-05-02T16:55:44.725Z,8.93
2019-05-02T16:58:33.670Z,9.90
2019-05-02T17:01:27.111Z,10.33
2019-05-02T17:04:12.881Z,8.80
2019-05-02T17:07:05.744Z,10.07
2019-05-02T17:09:53.768Z,12.73
2019-05-02T17:12:42.902Z,11.33
2019-05-02T17:15:35.447Z,12.73
2019-05-02T17:18:22.909Z,12.50
2019-05-02T17:21:12.560Z,10.00
2019-05-02T17:24:02.478Z,12.07
2019-05-02T17:26:51.851Z,10.73
2019-05-02T17:29:41.520Z,13.93
2019-05-02T17:32:36.207Z,14.93
2019-05-02T17:35:22.041Z,12.40
2019-05-02T17:38:09.660Z,13.30
2019-05-02T17:40:59.396Z,12.77
2019-05-02T17:43:48.947Z,15.10
2019-05-02T17:46:39.161Z,16.83
2019-05-02T17:49:34.854Z,16.53
2019-05-02T17:52:37.262Z,14.67
2019-05-02T17:55:24.788Z,17.70
2019-05-02T17:58:14.165Z,15.93
2019-05-02T18:01:04.049Z,16.63
2019-05-02T18:03:52.075Z,15.87
2019-05-02T18:06:41.705Z,17.30
2019-05-02T18:09:31.733Z,15.53
2019-05-02T18:12:19.483Z,16.53
2019-05-02T18:15:07.966Z,16.57
2019-05-02T18:17:59.841Z,20.57
2019-05-02T18:20:46.564Z,18.97
2019-05-02T18:23:34.759Z,18.80
2019-05-02T18:26:22.629Z,17.97
2019-05-02T18:29:12.287Z,18.70
2019-05-02T18:31:59.852Z,17.37
2019-05-02T18:34:47.708Z,31.80
2019-05-02T18:37:37.212Z,21.07
2019-05-02T18:40:29.387Z,19.23
2019-05-02T18:43:14.980Z,17.50
2019-05-02T18:46:07.555Z,32.07
2019-05-02T18:48:52.813Z,35.43
2019-05-02T18:51:42.370Z,32.00
2019-05-02T18:54:30.480Z,28.53
2019-05-02T18:57:25.906Z,23.37
2019-05-02T19:00:14.096Z,47.33
2019-05-02T19:03:02.732Z,30.07
2019-05-02T19:05:51.647Z,29.07
2019-05-02T19:08:46.559Z,25.47
2019-05-02T19:11:35.268Z,29.70
2019-05-02T19:14:25.918Z,29.17
2019-05-02T19:17:13.220Z,24.67
2019-05-02T19:20:01.229Z,27.90
2019-05-02T19:22:54.765Z,28.80
2019-05-02T19:25:39.770Z,26.30
2019-05-02T19:28:34.678Z,27.67
2019-05-02T19:31:19.313Z,30.00
2019-05-02T19:34:07.093Z,30.50
2019-05-02T19:36:57.843Z,30.23
2019-05-02T19:39:48.748Z,35.23
2019-05-02T19:42:35.768Z,35.37
2019-05-02T19:45:26.504Z,34.67
2019-05-02T19:48:14.427Z,35.87
2019-05-02T19:51:02.625Z,35.33
2019-05-02T19:53:59.603Z,34.53
2019-05-02T19:56:46.220Z,37.67
2019-05-02T19:59:32.149Z,37.83
2019-05-02T20:02:22.221Z,35.73
2019-05-02T20:05:16.499Z,33.93
2019-05-02T20:08:03.559Z,37.67
2019-05-02T20:10:56.875Z,36.03
2019-05-02T20:13:40.947Z,38.30
2019-05-02T20:16:36.693Z,35.43
2019-05-02T20:19:25.667Z,41.97
2019-05-02T20:22:13.999Z,40.20
2019-05-02T20:25:03.746Z,37.50
2019-05-02T20:27:52.608Z,39.87
2019-05-02T20:30:42.100Z,42.57
2019-05-02T20:33:32.435Z,43.17
2019-05-02T20:36:19.957Z,43.90
2019-05-02T20:39:08.897Z,49.23
2019-05-02T20:41:59.798Z,43.87
2019-05-02T20:44:47.640Z,44.80
2019-05-02T20:47:35.619Z,49.97
2019-05-02T20:50:23.331Z,51.33
2019-05-02T20:53:12.809Z,50.23
2019-05-02T20:56:01.837Z,42.93
2019-05-02T20:58:49.800Z,49.70
2019-05-02T21:01:37.866Z,50.83
2019-05-02T21:04:25.727Z,50.83
2019-05-02T21:07:18.215Z,53.93
2019-05-02T21:10:09.407Z,54.53
2019-05-02T21:12:57.294Z,52.80
2019-05-02T21:15:44.890Z,55.40
2019-05-02T21:18:32.921Z,50.73
2019-05-02T21:21:22.057Z,46.40
2019-05-02T21:24:10.010Z,49.83
2019-05-02T21:26:58.004Z,48.87
2019-05-02T21:29:45.960Z,51.80
2019-05-02T21:32:33.544Z,44.43
2019-05-02T21:35:22.347Z,49.63
2019-05-02T21:38:11.807Z,48.83
2019-05-02T21:40:59.920Z,47.27
2019-05-02T21:43:47.917Z,47.30
2019-05-02T21:46:35.786Z,49.53
2019-05-02T21:49:43.683Z,51.63
2019-05-02T21:52:33.705Z,48.80
2019-05-02T21:55:23.560Z,48.33
2019-05-02T21:58:12.097Z,49.53
2019-05-02T22:01:07.666Z,49.53
2019-05-02T22:03:55.557Z,45.77
2019-05-02T22:06:43.732Z,48.73
2019-05-02T22:09:32.335Z,50.83
2019-05-02T22:12:20.109Z,47.63
2019-05-02T22:15:09.390Z,48.50
2019-05-02T22:17:57.088Z,48.70
2019-05-02T22:20:45.059Z,50.63
2019-05-02T22:23:33.980Z,51.30
2019-05-02T22:26:22.257Z,49.33
2019-05-02T22:29:12.201Z,47.90
2019-05-02T22:32:00.080Z,51.57
2019-05-02T22:34:47.819Z,55.37
2019-05-02T22:37:36.497Z,55.13
2019-05-02T22:40:24.350Z,54.23
2019-05-02T22:43:12.994Z,53.37
2019-05-02T22:46:00.814Z,49.07
2019-05-02T22:48:48.504Z,48.60
2019-05-02T22:51:36.334Z,48.23
2019-05-02T22:54:30.386Z,48.93
2019-05-02T22:57:16.595Z,42.03
2019-05-02T23:00:06.929Z,45.23
2019-05-02T23:02:54.952Z,44.13
2019-05-02T23:05:42.921Z,49.53
2019-05-02T23:08:30.691Z,45.10
2019-05-02T23:11:18.696Z,39.93
2019-05-02T23:14:06.949Z,39.93
2019-05-02T23:17:06.784Z,43.20
2019-05-02T23:19:54.690Z,42.33
2019-05-02T23:22:42.474Z,44.47
2019-05-02T23:25:47.258Z,41.70
2019-05-02T23:28:36.820Z,41.50
2019-05-02T23:31:25.312Z,47.43
2019-05-02T23:34:13.550Z,43.97
2019-05-02T23:37:02.639Z,42.03
2019-05-02T23:39:52.328Z,42.50
2019-05-02T23:42:41.707Z,46.17
2019-05-02T23:45:31.601Z,44.00
2019-05-02T23:48:19.351Z,44.47
2019-05-02T23:51:06.949Z,43.10
2019-05-02T23:53:54.656Z,45.57
2019-05-02T23:56:43.248Z,47.07
2019-05-02T23:59:52.722Z,43.03
